Champion — WCZ7631 — position and weather

sailwx.info

Track history (hours):
 
Tides and Currents Weather Stations Pressure Air Temp Water Temp Dewpoint Dewpoint Depression Visibility Wind Speed Wind Dir Waves Ship Positions

Champion

More information available from US FCC via Universal Licensing System and Coast Guard Vessel Documentation Center.

Last reported at 2014-Sep-16 03:33 UTC. Time now 2014-Sep-16 17:31 UTC.
Position N 27°03' W 080°03'.

Length 20 m; draft 1.7 m.

Type: Towing. MMSI: 367005250.

Date/timePositionNaut miles runAvg speedWind from/ knotsBaromVisibWave heightAir tempDewpointWater temp
2014-Sep-16 03:33N 27°03' W 080°03'4 3.9
2014-Sep-16 02:33N 26°59' W 080°02'5 5.4
2014-Sep-16 01:33N 26°54' W 080°01'17 7.8
2014-Sep-15 23:26N 26°37' W 079°59'5 5.6
2014-Sep-15 22:31N 26°33' W 080°02'0 0.0
2014-Sep-15 15:28N 26°33' W 080°02'0 0.0
2014-Sep-15 14:29N 26°33' W 080°02'0 0.1
2014-Sep-15 13:29N 26°33' W 080°02'1 0.4
2014-Sep-15 12:09N 26°33' W 080°02'0 0.4
2014-Sep-15 11:33N 26°33' W 080°02'1 1.1
2014-Sep-15 10:28N 26°32' W 080°01'2 1.6
2014-Sep-15 09:32N 26°34' W 080°01'2 1.6
2014-Sep-15 08:32N 26°35' W 080°01'9 1.4
2014-Sep-15 02:06N 26°45' W 080°01'1 1.4
2014-Sep-15 01:10N 26°46' W 080°01'1 2.0
2014-Sep-15 00:32N 26°46' W 080°03'0 0.0
2014-Sep-14 03:30N 26°46' W 080°03'2 0.1
2014-Sep-12 15:23N 26°45' W 080°01'0 0.2
2014-Sep-12 14:06N 26°45' W 080°01'8 3.0
2014-Sep-12 11:33N 26°37' W 079°60'6 5.6
2014-Sep-12 10:33N 26°32' W 079°59'7 7.5
2014-Sep-12 09:34N 26°24' W 079°59'8 8.0
2014-Sep-12 08:33N 26°16' W 079°60'8 8.0
2014-Sep-12 07:33N 26°09' W 080°00'9 8.7
2014-Sep-12 06:33N 25°60' W 080°01'9 9.0
2014-Sep-12 05:33N 25°51' W 080°02'12 0.4
2014-Sep-10 20:33N 25°40' W 080°05'1 1.1
2014-Sep-10 19:33N 25°41' W 080°05'1 1.1
2014-Sep-10 18:33N 25°42' W 080°05'1 0.7
2014-Sep-10 17:33N 25°42' W 080°05'2 1.8
2014-Sep-10 16:34N 25°44' W 080°05'1 1.2
2014-Sep-10 15:33N 25°45' W 080°06'5 5.0
2014-Sep-10 14:33N 25°50' W 080°06'5 5.0
2014-Sep-10 13:33N 25°55' W 080°05'4 4.3
2014-Sep-10 12:33N 25°59' W 080°05'4 4.3
2014-Sep-10 11:33N 26°03' W 080°05'4 4.3
2014-Sep-10 10:33N 26°08' W 080°04'4 4.0
2014-Sep-10 09:34N 26°12' W 080°04'5 5.0
2014-Sep-10 08:33N 26°17' W 080°03'5 5.3
2014-Sep-10 07:33N 26°22' W 080°03'5 4.9
2014-Sep-10 06:33N 26°27' W 080°02'4 3.8
2014-Sep-10 05:34N 26°31' W 080°02'3 2.9
2014-Sep-10 04:32N 26°34' W 080°01'11 3.5
2014-Sep-10 01:21N 26°45' W 080°01'3 3.2
2014-Sep-10 00:25N 26°48' W 080°01'3 3.6
2014-Sep-09 23:33N 26°51' W 080°02'3 3.2
2014-Sep-09 22:33N 26°54' W 080°03'3 3.1
2014-Sep-09 21:33N 26°57' W 080°03'4 3.6
2014-Sep-09 20:33N 27°01' W 080°04'4 4.4
2014-Sep-09 19:33N 27°05' W 080°05'  
Track history (hours):
 
Tides and Currents Weather Stations Pressure Air Temp Water Temp Dewpoint Dewpoint Depression Visibility Wind Speed Wind Dir Waves Ship Positions

Champion

More information available from US FCC via Universal Licensing System and Coast Guard Vessel Documentation Center.

Last reported at 2014-Sep-16 03:33 UTC. Time now 2014-Sep-16 17:31 UTC.
Position N 27°03' W 080°03'.

Length 20 m; draft 1.7 m.

Type: Towing. MMSI: 367005250.

Date/timePositionNaut miles runAvg speedWind from/ knotsBaromVisibWave heightAir tempDewpointWater temp
2014-Sep-16 03:33N 27°03' W 080°03'4 3.9
2014-Sep-16 02:33N 26°59' W 080°02'5 5.4
2014-Sep-16 01:33N 26°54' W 080°01'17 7.8
2014-Sep-15 23:26N 26°37' W 079°59'5 5.6
2014-Sep-15 22:31N 26°33' W 080°02'0 0.0
2014-Sep-15 15:28N 26°33' W 080°02'0 0.0
2014-Sep-15 14:29N 26°33' W 080°02'0 0.1
2014-Sep-15 13:29N 26°33' W 080°02'1 0.4
2014-Sep-15 12:09N 26°33' W 080°02'0 0.4
2014-Sep-15 11:33N 26°33' W 080°02'1 1.1
2014-Sep-15 10:28N 26°32' W 080°01'2 1.6
2014-Sep-15 09:32N 26°34' W 080°01'2 1.6
2014-Sep-15 08:32N 26°35' W 080°01'9 1.4
2014-Sep-15 02:06N 26°45' W 080°01'1 1.4
2014-Sep-15 01:10N 26°46' W 080°01'1 2.0
2014-Sep-15 00:32N 26°46' W 080°03'0 0.0
2014-Sep-14 03:30N 26°46' W 080°03'2 0.1
2014-Sep-12 15:23N 26°45' W 080°01'0 0.2
2014-Sep-12 14:06N 26°45' W 080°01'8 3.0
2014-Sep-12 11:33N 26°37' W 079°60'6 5.6
2014-Sep-12 10:33N 26°32' W 079°59'7 7.5
2014-Sep-12 09:34N 26°24' W 079°59'8 8.0
2014-Sep-12 08:33N 26°16' W 079°60'8 8.0
2014-Sep-12 07:33N 26°09' W 080°00'9 8.7
2014-Sep-12 06:33N 25°60' W 080°01'9 9.0
2014-Sep-12 05:33N 25°51' W 080°02'12 0.4
2014-Sep-10 20:33N 25°40' W 080°05'1 1.1
2014-Sep-10 19:33N 25°41' W 080°05'1 1.1
2014-Sep-10 18:33N 25°42' W 080°05'1 0.7
2014-Sep-10 17:33N 25°42' W 080°05'2 1.8
2014-Sep-10 16:34N 25°44' W 080°05'1 1.2
2014-Sep-10 15:33N 25°45' W 080°06'5 5.0
2014-Sep-10 14:33N 25°50' W 080°06'5 5.0
2014-Sep-10 13:33N 25°55' W 080°05'4 4.3
2014-Sep-10 12:33N 25°59' W 080°05'4 4.3
2014-Sep-10 11:33N 26°03' W 080°05'4 4.3
2014-Sep-10 10:33N 26°08' W 080°04'4 4.0
2014-Sep-10 09:34N 26°12' W 080°04'5 5.0
2014-Sep-10 08:33N 26°17' W 080°03'5 5.3
2014-Sep-10 07:33N 26°22' W 080°03'5 4.9
2014-Sep-10 06:33N 26°27' W 080°02'4 3.8
2014-Sep-10 05:34N 26°31' W 080°02'3 2.9
2014-Sep-10 04:32N 26°34' W 080°01'11 3.5
2014-Sep-10 01:21N 26°45' W 080°01'3 3.2
2014-Sep-10 00:25N 26°48' W 080°01'3 3.6
2014-Sep-09 23:33N 26°51' W 080°02'3 3.2
2014-Sep-09 22:33N 26°54' W 080°03'3 3.1
2014-Sep-09 21:33N 26°57' W 080°03'4 3.6
2014-Sep-09 20:33N 27°01' W 080°04'4 4.4
2014-Sep-09 19:33N 27°05' W 080°05'  

Dump ship's entire track history